Time;durP1;ratioP1;P1;durP2;ratioP2;P2;SDS_P1;SDS_P2;PMS_P1;PMS_P2;Temp;Humidity;BMP_temperature;BMP_pressure;BME280_temperature;BME280_humidity;BME280_pressure;Samples;Min_cycle;Max_cycle;Signal;HPM_P1;HPM_P2
2021/10/07 00:00:28;;;;;;;;;;;19.30;63.90;;;;;;5057956;28;20376;-59
2021/10/07 00:02:54;;;;;;;;;;;19.40;63.80;;;;;;5063013;28;19912;-63
2021/10/07 00:05:19;;;;;;;;;;;19.40;63.80;;;;;;5054041;28;19924;-64
2021/10/07 00:07:44;;;;;;;;;;;19.40;63.80;;;;;;5063918;28;20432;-64
2021/10/07 00:10:10;;;;;;;;;;;19.30;63.80;;;;;;5059648;28;19921;-64
2021/10/07 00:12:35;;;;;;;;;;;19.30;63.80;;;;;;5059989;28;19916;-65
2021/10/07 00:15:01;;;;;;;;;;;19.40;63.80;;;;;;5062697;28;19916;-65
2021/10/07 00:17:26;;;;;;;;;;;19.40;63.80;;;;;;5064154;28;20507;-63
2021/10/07 00:19:52;;;;;;;;;;;19.30;63.70;;;;;;5060624;28;19974;-65
2021/10/07 00:22:17;;;;;;;;;;;19.40;63.80;;;;;;5059510;28;20284;-64
2021/10/07 00:24:43;;;;;;;;;;;19.40;63.70;;;;;;5057356;28;19920;-62
2021/10/07 00:27:08;;;;;;;;;;;19.30;63.70;;;;;;5065224;28;19969;-62
2021/10/07 00:32:11;;;;;;;;;;;19.40;63.70;;;;;;5044699;28;19986;-63
2021/10/07 00:39:56;;;;;;;;;;;19.30;63.60;;;;;;5058475;28;20032;-61
2021/10/07 00:42:21;;;;;;;;;;;19.40;63.70;;;;;;5065112;28;19916;-62
2021/10/07 00:44:47;;;;;;;;;;;19.30;63.60;;;;;;5065160;28;19916;-62
2021/10/07 00:47:12;;;;;;;;;;;19.30;63.50;;;;;;5058588;28;19920;-64
2021/10/07 00:49:41;;;;;;;;;;;19.30;63.60;;;;;;5050214;28;20000;-59
2021/10/07 00:52:07;;;;;;;;;;;19.30;63.60;;;;;;5061471;28;19917;-64
2021/10/07 00:54:32;;;;;;;;;;;19.30;63.60;;;;;;5064611;28;19981;-63
2021/10/07 00:56:57;;;;;;;;;;;19.30;63.50;;;;;;5062983;28;20311;-64
2021/10/07 00:59:23;;;;;;;;;;;19.30;63.50;;;;;;5046098;28;19917;-65
2021/10/07 01:01:49;;;;;;;;;;;19.40;63.50;;;;;;5061568;28;20026;-64
2021/10/07 01:04:14;;;;;;;;;;;19.30;64.20;;;;;;5052686;28;20381;-64
2021/10/07 01:06:40;;;;;;;;;;;19.30;63.50;;;;;;5060181;28;19924;-65
2021/10/07 01:09:06;;;;;;;;;;;19.40;63.50;;;;;;5058823;28;20406;-62
2021/10/07 01:11:31;;;;;;;;;;;19.30;63.40;;;;;;5063149;28;19923;-60
2021/10/07 01:13:57;;;;;;;;;;;19.30;63.40;;;;;;5057519;28;19916;-64
2021/10/07 01:16:22;;;;;;;;;;;19.30;63.40;;;;;;5060479;28;20393;-64
2021/10/07 01:18:48;;;;;;;;;;;19.30;63.40;;;;;;5063642;28;19985;-63
2021/10/07 01:21:13;;;;;;;;;;;19.30;63.40;;;;;;5064417;28;20387;-62
2021/10/07 01:23:39;;;;;;;;;;;19.30;63.50;;;;;;5066006;28;19917;-59
2021/10/07 01:26:06;;;;;;;;;;;19.30;63.50;;;;;;5059257;28;19924;-65
2021/10/07 01:28:31;;;;;;;;;;;19.30;63.50;;;;;;5062171;28;19917;-63
2021/10/07 01:30:57;;;;;;;;;;;19.30;63.40;;;;;;5063791;28;20017;-63
2021/10/07 01:33:22;;;;;;;;;;;19.30;63.40;;;;;;5059855;28;19925;-63
2021/10/07 01:35:47;;;;;;;;;;;19.30;63.30;;;;;;5062490;28;19921;-64
2021/10/07 01:38:13;;;;;;;;;;;19.30;63.30;;;;;;5056769;28;19916;-63
2021/10/07 01:40:38;;;;;;;;;;;19.30;63.30;;;;;;5061105;28;19924;-64
2021/10/07 01:43:04;;;;;;;;;;;19.30;63.90;;;;;;5064426;28;20393;-65
2021/10/07 01:45:29;;;;;;;;;;;19.30;63.30;;;;;;5061390;28;19924;-63
2021/10/07 01:47:55;;;;;;;;;;;19.30;63.30;;;;;;5061021;28;19977;-63
2021/10/07 01:50:20;;;;;;;;;;;19.30;63.20;;;;;;5065289;28;19921;-65
2021/10/07 01:52:46;;;;;;;;;;;19.30;63.30;;;;;;5065277;28;20290;-65
2021/10/07 01:55:11;;;;;;;;;;;19.30;63.20;;;;;;5059728;28;19974;-62
2021/10/07 01:57:37;;;;;;;;;;;19.30;63.20;;;;;;5059501;28;19935;-63
2021/10/07 02:00:04;;;;;;;;;;;19.30;63.20;;;;;;5061202;28;20401;-65
2021/10/07 02:02:29;;;;;;;;;;;19.30;63.20;;;;;;5063018;28;19923;-65
2021/10/07 02:04:54;;;;;;;;;;;19.30;63.20;;;;;;5057202;28;20310;-66
2021/10/07 02:07:20;;;;;;;;;;;19.30;63.10;;;;;;5061004;28;19932;-65
2021/10/07 02:09:46;;;;;;;;;;;19.30;63.20;;;;;;5064458;28;19916;-63
2021/10/07 02:12:11;;;;;;;;;;;19.30;63.10;;;;;;5060930;28;19917;-66
2021/10/07 02:14:37;;;;;;;;;;;19.30;63.10;;;;;;5054553;28;19924;-66
2021/10/07 02:17:02;;;;;;;;;;;19.30;63.10;;;;;;5064113;28;19924;-63
2021/10/07 02:19:28;;;;;;;;;;;19.30;63.00;;;;;;5061801;28;20825;-65
2021/10/07 02:21:53;;;;;;;;;;;19.30;63.00;;;;;;5058563;28;19966;-65
2021/10/07 02:24:19;;;;;;;;;;;19.30;63.00;;;;;;5061193;28;19916;-64
2021/10/07 02:26:44;;;;;;;;;;;19.30;63.10;;;;;;5064165;28;19912;-65
2021/10/07 02:29:09;;;;;;;;;;;19.30;63.00;;;;;;5063888;28;19969;-64
2021/10/07 02:31:35;;;;;;;;;;;19.30;63.00;;;;;;5064058;28;20290;-61
2021/10/07 02:34:00;;;;;;;;;;;19.30;63.00;;;;;;5065173;28;19916;-63
2021/10/07 02:36:26;;;;;;;;;;;19.30;63.00;;;;;;5063624;28;19917;-65
2021/10/07 02:38:51;;;;;;;;;;;19.20;62.90;;;;;;5064232;28;19919;-64
2021/10/07 02:41:17;;;;;;;;;;;19.20;62.90;;;;;;5064668;28;19948;-64
2021/10/07 02:43:42;;;;;;;;;;;19.20;62.90;;;;;;5064195;28;19994;-64
2021/10/07 02:46:08;;;;;;;;;;;19.20;62.90;;;;;;5064796;28;19919;-64
2021/10/07 02:48:33;;;;;;;;;;;19.20;62.90;;;;;;5063714;28;19920;-66
2021/10/07 02:50:58;;;;;;;;;;;19.30;62.90;;;;;;5064638;28;20332;-65
2021/10/07 02:53:27;;;;;;;;;;;19.20;62.90;;;;;;5064515;28;19919;-64
2021/10/07 02:55:52;;;;;;;;;;;19.20;62.80;;;;;;5062824;28;19924;-65
2021/10/07 02:58:18;;;;;;;;;;;19.20;62.90;;;;;;5062076;28;19923;-60
2021/10/07 03:00:43;;;;;;;;;;;19.20;62.90;;;;;;5059219;28;19942;-65
2021/10/07 03:03:09;;;;;;;;;;;19.20;62.80;;;;;;5063571;28;20354;-65
2021/10/07 03:05:34;;;;;;;;;;;19.20;62.80;;;;;;5063020;28;19917;-65
2021/10/07 03:08:00;;;;;;;;;;;19.20;62.80;;;;;;5064206;28;19912;-65
2021/10/07 03:10:25;;;;;;;;;;;19.20;62.80;;;;;;5064154;28;20279;-65
2021/10/07 03:12:50;;;;;;;;;;;19.20;62.80;;;;;;5063754;28;19977;-65
2021/10/07 03:15:16;;;;;;;;;;;19.20;62.80;;;;;;5065547;28;19912;-65
2021/10/07 03:17:41;;;;;;;;;;;19.20;62.80;;;;;;5057868;28;19916;-61
2021/10/07 03:20:07;;;;;;;;;;;19.20;62.70;;;;;;5063139;28;19920;-64
2021/10/07 03:22:33;;;;;;;;;;;19.20;62.70;;;;;;5064888;28;19920;-65
2021/10/07 03:24:58;;;;;;;;;;;19.20;62.70;;;;;;5062511;28;20706;-65
2021/10/07 03:27:24;;;;;;;;;;;19.20;62.70;;;;;;5058869;28;19939;-64
2021/10/07 03:29:49;;;;;;;;;;;19.20;62.70;;;;;;5066160;28;19916;-65
2021/10/07 03:32:15;;;;;;;;;;;19.20;62.70;;;;;;5068473;28;19927;-62
2021/10/07 03:34:40;;;;;;;;;;;19.20;62.70;;;;;;5054955;28;20342;-65
2021/10/07 03:37:05;;;;;;;;;;;19.20;62.70;;;;;;5065884;28;19984;-65
2021/10/07 03:39:31;;;;;;;;;;;19.10;62.60;;;;;;5068126;28;19913;-65
2021/10/07 03:41:56;;;;;;;;;;;19.20;62.60;;;;;;5065407;28;20391;-65
2021/10/07 03:44:22;;;;;;;;;;;19.20;62.50;;;;;;5063902;28;20436;-66
2021/10/07 03:46:47;;;;;;;;;;;19.20;62.50;;;;;;5063781;28;20017;-65
2021/10/07 03:49:13;;;;;;;;;;;19.20;62.50;;;;;;5055699;28;19925;-65
2021/10/07 03:51:38;;;;;;;;;;;19.20;62.50;;;;;;5067686;28;19912;-66
2021/10/07 03:54:04;;;;;;;;;;;19.10;63.10;;;;;;5068030;28;20318;-64
2021/10/07 03:56:29;;;;;;;;;;;19.10;62.50;;;;;;5067490;28;20449;-64
2021/10/07 03:58:54;;;;;;;;;;;19.10;62.50;;;;;;5067405;28;19969;-65
2021/10/07 04:01:20;;;;;;;;;;;19.20;62.50;;;;;;5068480;28;19971;-62
2021/10/07 04:03:45;;;;;;;;;;;19.10;62.50;;;;;;5070147;28;20318;-63
2021/10/07 04:06:11;;;;;;;;;;;19.10;62.50;;;;;;5069215;28;19962;-63
2021/10/07 04:08:36;;;;;;;;;;;19.10;62.70;;;;;;5066849;28;19912;-65
2021/10/07 04:11:02;;;;;;;;;;;19.10;62.90;;;;;;5064773;28;19921;-65
2021/10/07 04:13:27;;;;;;;;;;;19.10;62.90;;;;;;5067729;28;19920;-66
2021/10/07 04:15:53;;;;;;;;;;;19.10;63.30;;;;;;5063427;28;19916;-65
2021/10/07 04:18:18;;;;;;;;;;;19.10;63.40;;;;;;5062854;28;19916;-65
2021/10/07 04:20:44;;;;;;;;;;;19.10;63.60;;;;;;5063476;28;19928;-65
2021/10/07 04:23:11;;;;;;;;;;;19.10;63.70;;;;;;5064445;28;19916;-67
2021/10/07 04:25:36;;;;;;;;;;;19.10;63.60;;;;;;5065967;28;20375;-60
2021/10/07 04:28:04;;;;;;;;;;;19.10;63.50;;;;;;5058476;28;20221;-65
2021/10/07 04:30:30;;;;;;;;;;;19.10;63.40;;;;;;5065379;28;19917;-64
2021/10/07 04:32:55;;;;;;;;;;;19.10;63.20;;;;;;5062699;28;19930;-65
2021/10/07 04:35:21;;;;;;;;;;;19.10;63.10;;;;;;5059915;28;19949;-64
2021/10/07 04:37:46;;;;;;;;;;;19.10;63.10;;;;;;5061938;28;19946;-63
2021/10/07 04:40:11;;;;;;;;;;;19.10;63.00;;;;;;5062422;28;20325;-65
2021/10/07 04:42:37;;;;;;;;;;;19.10;63.00;;;;;;5064666;28;19924;-60
2021/10/07 04:45:02;;;;;;;;;;;19.10;63.00;;;;;;5065591;28;19912;-65
2021/10/07 04:47:31;;;;;;;;;;;19.10;63.00;;;;;;5066300;28;20016;-64
2021/10/07 04:49:56;;;;;;;;;;;19.10;63.00;;;;;;5058651;28;20295;-65
2021/10/07 04:52:22;;;;;;;;;;;19.10;62.90;;;;;;5061706;28;19916;-64
2021/10/07 04:54:47;;;;;;;;;;;19.10;62.90;;;;;;5057220;28;19928;-61
2021/10/07 04:57:12;;;;;;;;;;;19.10;62.90;;;;;;5061798;28;20022;-63
2021/10/07 04:59:38;;;;;;;;;;;19.10;62.90;;;;;;5060776;28;20325;-65
2021/10/07 05:02:03;;;;;;;;;;;19.00;63.00;;;;;;5047304;28;19956;-64
2021/10/07 05:04:29;;;;;;;;;;;19.00;63.60;;;;;;5057435;28;19970;-64
2021/10/07 05:06:54;;;;;;;;;;;19.00;63.90;;;;;;5052643;28;19924;-64
2021/10/07 05:09:20;;;;;;;;;;;19.00;63.90;;;;;;5060726;28;19991;-64
2021/10/07 05:11:45;;;;;;;;;;;19.00;63.90;;;;;;5032499;28;19917;-64
2021/10/07 05:14:11;;;;;;;;;;;19.00;63.80;;;;;;5063677;28;20418;-63
2021/10/07 05:16:36;;;;;;;;;;;19.00;63.60;;;;;;5063289;28;19990;-65
2021/10/07 05:19:01;;;;;;;;;;;19.00;63.40;;;;;;5063914;28;19912;-64
2021/10/07 05:21:27;;;;;;;;;;;19.00;63.30;;;;;;5063531;28;20388;-64
2021/10/07 05:23:52;;;;;;;;;;;19.00;63.30;;;;;;5063402;28;19919;-64
2021/10/07 05:26:18;;;;;;;;;;;19.00;63.20;;;;;;5062802;28;19913;-64
2021/10/07 05:28:44;;;;;;;;;;;19.00;63.10;;;;;;5052209;28;19947;-61
2021/10/07 05:31:10;;;;;;;;;;;19.00;63.00;;;;;;5063550;28;20655;-63
2021/10/07 05:33:35;;;;;;;;;;;19.00;63.00;;;;;;5045901;28;20006;-62
2021/10/07 05:36:01;;;;;;;;;;;19.00;62.90;;;;;;5064212;28;20298;-64
2021/10/07 05:38:26;;;;;;;;;;;19.00;62.80;;;;;;5063248;28;20152;-63
2021/10/07 05:40:52;;;;;;;;;;;19.00;62.80;;;;;;5063367;28;19930;-64
2021/10/07 05:43:17;;;;;;;;;;;19.00;62.80;;;;;;5064278;28;20017;-64
2021/10/07 05:45:42;;;;;;;;;;;19.00;62.70;;;;;;5063036;28;20000;-63
2021/10/07 05:48:08;;;;;;;;;;;19.00;62.60;;;;;;5063847;28;19912;-64
2021/10/07 05:50:33;;;;;;;;;;;19.00;62.60;;;;;;5063961;28;20433;-64
2021/10/07 05:52:59;;;;;;;;;;;19.00;62.60;;;;;;5065340;28;20044;-64
2021/10/07 05:55:24;;;;;;;;;;;18.90;62.50;;;;;;5063131;28;20002;-64
2021/10/07 05:57:50;;;;;;;;;;;18.90;62.50;;;;;;5063934;28;20323;-63
2021/10/07 06:00:15;;;;;;;;;;;18.90;62.40;;;;;;5062315;28;19920;-62
2021/10/07 06:02:41;;;;;;;;;;;18.90;62.40;;;;;;5045733;28;19928;-62
2021/10/07 06:05:07;;;;;;;;;;;18.90;62.50;;;;;;5062449;28;20312;-62
2021/10/07 06:07:32;;;;;;;;;;;18.90;62.50;;;;;;5064154;28;20363;-62
2021/10/07 06:09:58;;;;;;;;;;;18.90;62.40;;;;;;5063258;28;19934;-64
2021/10/07 06:12:23;;;;;;;;;;;18.90;62.50;;;;;;5062171;28;20438;-63
2021/10/07 06:14:49;;;;;;;;;;;18.90;62.40;;;;;;5063270;28;19940;-64
2021/10/07 06:17:14;;;;;;;;;;;18.90;62.40;;;;;;5062718;28;19916;-64
2021/10/07 06:19:42;;;;;;;;;;;18.90;62.30;;;;;;5052051;28;20298;-64
2021/10/07 06:22:08;;;;;;;;;;;18.90;62.30;;;;;;5061789;28;19951;-63
2021/10/07 06:24:33;;;;;;;;;;;18.80;62.20;;;;;;5063039;28;19913;-63
2021/10/07 06:27:00;;;;;;;;;;;18.80;62.20;;;;;;5062394;28;21042;-64
2021/10/07 06:29:27;;;;;;;;;;;18.80;62.20;;;;;;5062014;28;19913;-64
2021/10/07 06:31:52;;;;;;;;;;;18.80;62.20;;;;;;5062805;28;20062;-64
2021/10/07 06:34:18;;;;;;;;;;;18.80;62.20;;;;;;5062151;28;19999;-63
2021/10/07 06:36:43;;;;;;;;;;;18.80;62.20;;;;;;5063192;28;19913;-62
2021/10/07 06:39:08;;;;;;;;;;;18.80;62.30;;;;;;5062332;28;19999;-60
2021/10/07 06:41:34;;;;;;;;;;;18.80;62.40;;;;;;5062869;28;19916;-62
2021/10/07 06:43:59;;;;;;;;;;;18.80;62.30;;;;;;5062045;28;20303;-64
2021/10/07 06:46:25;;;;;;;;;;;18.80;62.30;;;;;;5062481;28;19912;-64
2021/10/07 06:48:54;;;;;;;;;;;18.80;62.30;;;;;;5062600;28;19921;-63
2021/10/07 06:51:20;;;;;;;;;;;18.80;62.30;;;;;;5063304;28;20402;-63
2021/10/07 06:53:49;;;;;;;;;;;18.80;62.30;;;;;;5062178;28;19924;-58
2021/10/07 06:56:15;;;;;;;;;;;18.80;62.40;;;;;;5062821;28;19920;-64
2021/10/07 06:58:40;;;;;;;;;;;18.80;62.40;;;;;;5044334;28;19916;-63
2021/10/07 07:01:06;;;;;;;;;;;18.80;62.30;;;;;;5063818;28;20235;-64
2021/10/07 07:03:31;;;;;;;;;;;18.70;62.30;;;;;;5062175;28;19913;-63
2021/10/07 07:05:57;;;;;;;;;;;18.70;62.30;;;;;;5061657;28;19916;-63
2021/10/07 07:08:22;;;;;;;;;;;18.70;62.40;;;;;;5062281;28;19940;-64
2021/10/07 07:10:48;;;;;;;;;;;18.70;62.30;;;;;;5062055;28;19927;-64
2021/10/07 07:13:13;;;;;;;;;;;18.70;62.40;;;;;;5062732;28;19912;-64
2021/10/07 07:15:39;;;;;;;;;;;18.70;62.30;;;;;;5062861;28;19913;-59
2021/10/07 07:18:04;;;;;;;;;;;18.70;62.30;;;;;;5061479;28;19912;-63
2021/10/07 07:20:29;;;;;;;;;;;18.70;62.40;;;;;;5061718;28;19962;-62
2021/10/07 07:22:55;;;;;;;;;;;18.70;62.30;;;;;;5062156;28;19912;-62
2021/10/07 07:25:20;;;;;;;;;;;18.70;62.40;;;;;;5062423;28;19938;-62
2021/10/07 07:27:46;;;;;;;;;;;18.70;62.40;;;;;;5062195;28;19912;-64
2021/10/07 07:30:11;;;;;;;;;;;18.70;62.40;;;;;;5062061;28;19917;-64
2021/10/07 07:32:37;;;;;;;;;;;18.70;62.40;;;;;;5063007;28;19912;-64
2021/10/07 07:35:03;;;;;;;;;;;18.70;62.50;;;;;;5062377;28;20331;-64
2021/10/07 07:37:28;;;;;;;;;;;18.70;62.50;;;;;;5062605;28;20264;-62
2021/10/07 07:39:54;;;;;;;;;;;18.60;62.40;;;;;;5063098;28;19920;-64
2021/10/07 07:42:20;;;;;;;;;;;18.60;62.40;;;;;;5062771;28;20416;-63
2021/10/07 07:44:45;;;;;;;;;;;18.70;62.50;;;;;;5062532;28;19916;-63
2021/10/07 07:47:11;;;;;;;;;;;18.70;62.60;;;;;;5044834;28;19917;-65
2021/10/07 07:49:38;;;;;;;;;;;18.70;62.60;;;;;;5062864;28;19917;-64
2021/10/07 07:52:03;;;;;;;;;;;18.70;62.60;;;;;;5062529;28;19920;-64
2021/10/07 07:54:28;;;;;;;;;;;18.70;62.60;;;;;;5062442;28;19917;-63
2021/10/07 07:56:54;;;;;;;;;;;18.70;62.60;;;;;;5062538;28;19912;-63
2021/10/07 07:59:19;;;;;;;;;;;18.60;62.60;;;;;;5062538;28;19912;-64
2021/10/07 08:01:45;;;;;;;;;;;18.70;62.70;;;;;;5062998;28;19939;-64
2021/10/07 08:04:10;;;;;;;;;;;18.60;62.60;;;;;;5062301;28;19921;-63
2021/10/07 08:06:36;;;;;;;;;;;18.60;62.60;;;;;;5063260;28;19912;-61
2021/10/07 08:09:04;;;;;;;;;;;18.60;62.70;;;;;;5061654;28;19919;-64
2021/10/07 08:11:29;;;;;;;;;;;18.60;62.70;;;;;;5062299;28;20362;-64
2021/10/07 08:13:56;;;;;;;;;;;18.60;62.70;;;;;;5062219;28;20046;-63
2021/10/07 08:16:22;;;;;;;;;;;18.60;62.70;;;;;;5062626;28;19913;-64
2021/10/07 08:18:47;;;;;;;;;;;18.60;62.70;;;;;;5062246;28;19969;-63
2021/10/07 08:21:13;;;;;;;;;;;18.60;62.80;;;;;;5062410;28;19976;-64
2021/10/07 08:23:38;;;;;;;;;;;18.60;62.80;;;;;;5062465;28;20391;-63
2021/10/07 08:26:04;;;;;;;;;;;18.60;62.80;;;;;;5062133;28;19955;-63
2021/10/07 08:28:29;;;;;;;;;;;18.60;62.80;;;;;;5064086;28;19920;-63
2021/10/07 08:30:54;;;;;;;;;;;18.60;62.80;;;;;;5066053;28;19919;-62
2021/10/07 08:33:20;;;;;;;;;;;18.60;62.80;;;;;;5067407;28;19962;-64
2021/10/07 08:35:48;;;;;;;;;;;18.60;62.90;;;;;;5049765;28;19919;-64
2021/10/07 08:38:14;;;;;;;;;;;18.60;62.90;;;;;;5066645;28;19916;-64
2021/10/07 08:40:39;;;;;;;;;;;18.50;62.90;;;;;;5066597;28;20458;-64
2021/10/07 08:43:05;;;;;;;;;;;18.50;62.90;;;;;;5065458;28;21385;-63
2021/10/07 08:45:30;;;;;;;;;;;18.60;62.90;;;;;;5065493;28;19913;-63
2021/10/07 08:47:56;;;;;;;;;;;18.50;62.90;;;;;;5065344;28;19913;-63
2021/10/07 08:50:21;;;;;;;;;;;18.60;63.00;;;;;;5065293;28;20395;-64
2021/10/07 08:52:47;;;;;;;;;;;18.50;62.90;;;;;;5065307;28;19969;-64
2021/10/07 08:55:12;;;;;;;;;;;18.50;62.90;;;;;;5065206;28;19928;-63
2021/10/07 08:57:38;;;;;;;;;;;18.50;63.00;;;;;;5065662;28;19970;-64
2021/10/07 09:00:05;;;;;;;;;;;18.50;63.00;;;;;;5065327;28;20003;-64
2021/10/07 09:02:31;;;;;;;;;;;18.50;63.00;;;;;;5065309;28;19958;-64
2021/10/07 09:05:05;;;;;;;;;;;18.50;63.00;;;;;;5065169;28;19912;-64
2021/10/07 09:07:31;;;;;;;;;;;18.50;63.10;;;;;;5065307;28;20273;-64
2021/10/07 09:09:57;;;;;;;;;;;18.50;63.00;;;;;;5065321;28;20007;-64
2021/10/07 09:12:22;;;;;;;;;;;18.50;63.10;;;;;;5066104;28;20440;-64
2021/10/07 09:14:48;;;;;;;;;;;18.50;63.10;;;;;;5065199;28;19912;-63
2021/10/07 09:17:14;;;;;;;;;;;18.50;63.10;;;;;;5065392;28;20359;-64
2021/10/07 09:19:40;;;;;;;;;;;18.50;63.10;;;;;;5065436;28;19996;-63
2021/10/07 09:22:25;;;;;;;;;;;18.50;63.10;;;;;;5047404;28;19928;-63
2021/10/07 09:24:53;;;;;;;;;;;18.50;63.10;;;;;;5064766;28;19916;-58
2021/10/07 09:27:28;;;;;;;;;;;18.50;63.10;;;;;;5065229;28;19952;-64
2021/10/07 09:29:55;;;;;;;;;;;18.50;63.10;;;;;;5045723;28;19944;-64
2021/10/07 09:32:39;;;;;;;;;;;18.50;63.10;;;;;;5064808;28;20399;-63
2021/10/07 09:35:06;;;;;;;;;;;18.50;63.10;;;;;;5064230;28;19948;-63
2021/10/07 09:37:35;;;;;;;;;;;18.50;63.20;;;;;;5065604;28;20398;-64
2021/10/07 09:40:09;;;;;;;;;;;18.50;63.20;;;;;;5063929;28;20386;-64
2021/10/07 09:42:35;;;;;;;;;;;18.50;63.20;;;;;;5064757;28;19917;-64
2021/10/07 09:45:03;;;;;;;;;;;18.40;63.10;;;;;;5046596;28;20013;-64
2021/10/07 09:47:29;;;;;;;;;;;18.50;63.30;;;;;;5064735;28;19947;-64
2021/10/07 09:50:10;;;;;;;;;;;18.50;63.20;;;;;;5064375;28;19912;-64
2021/10/07 09:52:38;;;;;;;;;;;18.40;63.20;;;;;;5064403;28;19955;-63
2021/10/07 09:55:23;;;;;;;;;;;18.40;63.20;;;;;;5064396;28;20065;-63
2021/10/07 09:57:52;;;;;;;;;;;18.50;63.30;;;;;;5064439;28;19942;-64
2021/10/07 10:00:18;;;;;;;;;;;18.40;63.30;;;;;;5046011;28;19919;-63
2021/10/07 10:02:43;;;;;;;;;;;18.40;63.30;;;;;;5064793;28;19912;-64
2021/10/07 10:05:15;;;;;;;;;;;18.40;63.30;;;;;;5064998;28;20476;-64
2021/10/07 10:07:43;;;;;;;;;;;18.40;63.30;;;;;;5063779;28;19913;-64
2021/10/07 10:10:09;;;;;;;;;;;18.40;63.30;;;;;;5046085;28;19912;-64
2021/10/07 10:12:34;;;;;;;;;;;18.40;63.30;;;;;;5063988;28;19935;-63
2021/10/07 10:15:00;;;;;;;;;;;18.40;63.30;;;;;;5063407;28;19923;-63
2021/10/07 10:17:26;;;;;;;;;;;18.40;63.30;;;;;;5063763;28;19913;-64
2021/10/07 10:19:51;;;;;;;;;;;18.40;63.30;;;;;;5045586;28;19932;-64
2021/10/07 10:22:17;;;;;;;;;;;18.40;63.40;;;;;;5045809;28;19916;-61
2021/10/07 10:24:45;;;;;;;;;;;18.40;63.30;;;;;;5046057;28;19942;-62
2021/10/07 10:27:10;;;;;;;;;;;18.40;63.40;;;;;;5047233;28;20216;-62
2021/10/07 10:29:36;;;;;;;;;;;18.40;63.40;;;;;;5063314;28;21275;-64
2021/10/07 10:32:03;;;;;;;;;;;18.40;63.50;;;;;;5063610;28;19968;-64
2021/10/07 10:34:28;;;;;;;;;;;18.40;63.50;;;;;;5063576;28;19957;-64
2021/10/07 10:36:57;;;;;;;;;;;18.40;63.50;;;;;;5045585;28;19917;-64
2021/10/07 10:39:26;;;;;;;;;;;18.40;63.50;;;;;;5063333;28;19919;-64
2021/10/07 10:41:53;;;;;;;;;;;18.40;63.50;;;;;;5063766;28;19992;-63
2021/10/07 10:44:30;;;;;;;;;;;18.40;63.50;;;;;;5064232;28;19963;-62
2021/10/07 10:47:08;;;;;;;;;;;18.40;63.60;;;;;;5060769;28;19961;-62
2021/10/07 10:49:36;;;;;;;;;;;18.40;63.60;;;;;;5063503;28;20064;-64
2021/10/07 10:52:10;;;;;;;;;;;18.40;63.60;;;;;;5063427;28;20298;-63
2021/10/07 10:54:39;;;;;;;;;;;18.40;63.90;;;;;;5063260;28;19985;-64
2021/10/07 10:57:05;;;;;;;;;;;18.40;63.60;;;;;;5045426;28;20668;-64
2021/10/07 10:59:31;;;;;;;;;;;18.40;63.60;;;;;;5062721;28;19912;-63
2021/10/07 11:02:14;;;;;;;;;;;18.40;63.60;;;;;;5044749;28;19920;-64
2021/10/07 11:04:46;;;;;;;;;;;18.40;63.60;;;;;;5063125;28;19913;-62
2021/10/07 11:07:15;;;;;;;;;;;18.40;63.70;;;;;;5062959;28;20202;-64
2021/10/07 11:09:54;;;;;;;;;;;18.40;63.70;;;;;;5058286;28;20488;-64
2021/10/07 11:12:19;;;;;;;;;;;18.40;63.80;;;;;;5044965;28;19936;-63
2021/10/07 11:14:45;;;;;;;;;;;18.40;63.80;;;;;;5062603;28;19985;-65
2021/10/07 11:17:10;;;;;;;;;;;18.40;63.80;;;;;;5045764;28;19961;-64
2021/10/07 11:19:36;;;;;;;;;;;18.40;63.80;;;;;;5062504;28;19913;-64
2021/10/07 11:22:10;;;;;;;;;;;18.40;63.80;;;;;;5063042;28;20395;-63
2021/10/07 11:24:48;;;;;;;;;;;18.40;63.90;;;;;;5063152;28;19970;-64
2021/10/07 11:27:14;;;;;;;;;;;18.40;63.80;;;;;;5062958;28;20247;-64
2021/10/07 11:29:39;;;;;;;;;;;18.40;63.90;;;;;;5045197;28;19913;-64
2021/10/07 11:32:05;;;;;;;;;;;18.40;63.90;;;;;;5063387;28;19925;-64
2021/10/07 11:34:30;;;;;;;;;;;18.40;63.90;;;;;;5063061;28;19917;-63
2021/10/07 11:36:56;;;;;;;;;;;18.40;64.00;;;;;;5062853;28;19920;-63
2021/10/07 11:39:21;;;;;;;;;;;18.30;64.00;;;;;;5062645;28;19971;-65
2021/10/07 11:41:47;;;;;;;;;;;18.30;64.00;;;;;;5044773;28;19924;-64
2021/10/07 11:44:13;;;;;;;;;;;18.30;64.10;;;;;;5062832;28;20395;-63
2021/10/07 11:46:38;;;;;;;;;;;18.30;64.00;;;;;;5062800;28;19913;-63
2021/10/07 11:49:03;;;;;;;;;;;18.40;64.10;;;;;;5062027;28;20371;-65
2021/10/07 11:51:29;;;;;;;;;;;18.30;64.00;;;;;;5062438;28;19916;-64
2021/10/07 11:53:55;;;;;;;;;;;18.30;64.10;;;;;;5062516;28;20466;-62
2021/10/07 11:56:23;;;;;;;;;;;18.30;64.10;;;;;;5045001;28;19920;-61
2021/10/07 11:58:51;;;;;;;;;;;18.30;64.20;;;;;;5062858;28;19912;-63
2021/10/07 12:01:17;;;;;;;;;;;18.30;64.40;;;;;;5062938;28;19920;-63
2021/10/07 12:03:42;;;;;;;;;;;18.30;64.30;;;;;;5065810;28;19962;-64
2021/10/07 12:06:08;;;;;;;;;;;18.40;64.20;;;;;;5066750;28;19962;-60
2021/10/07 12:08:35;;;;;;;;;;;18.30;64.20;;;;;;5066418;28;20335;-65
2021/10/07 12:11:01;;;;;;;;;;;18.40;64.30;;;;;;5065853;28;20026;-64
2021/10/07 12:13:28;;;;;;;;;;;18.40;64.40;;;;;;5066558;28;19946;-63
2021/10/07 12:15:54;;;;;;;;;;;18.30;64.30;;;;;;5066539;28;20164;-64
2021/10/07 12:18:20;;;;;;;;;;;18.30;64.40;;;;;;5065982;28;20358;-64
2021/10/07 12:20:55;;;;;;;;;;;18.30;64.40;;;;;;5048331;28;19942;-61
2021/10/07 12:23:21;;;;;;;;;;;18.30;64.40;;;;;;5066036;28;19962;-60
2021/10/07 12:25:46;;;;;;;;;;;18.30;64.40;;;;;;5065804;28;19920;-64
2021/10/07 12:28:18;;;;;;;;;;;18.30;64.40;;;;;;5046864;28;19920;-59
2021/10/07 12:30:50;;;;;;;;;;;18.30;64.40;;;;;;5038672;28;19912;-64
2021/10/07 12:33:15;;;;;;;;;;;18.30;64.40;;;;;;5065730;28;19970;-61
2021/10/07 12:35:58;;;;;;;;;;;18.30;64.40;;;;;;5065240;28;20341;-64
2021/10/07 12:38:23;;;;;;;;;;;18.30;64.50;;;;;;5065612;28;19913;-64
2021/10/07 12:40:50;;;;;;;;;;;18.30;64.50;;;;;;5066121;28;19939;-65
2021/10/07 12:43:15;;;;;;;;;;;18.30;64.60;;;;;;5066625;28;19923;-64
2021/10/07 12:45:58;;;;;;;;;;;18.30;64.60;;;;;;5065520;28;19924;-64
2021/10/07 12:48:23;;;;;;;;;;;18.30;64.60;;;;;;5061593;28;21677;-63
2021/10/07 12:50:49;;;;;;;;;;;18.30;64.50;;;;;;5047550;28;19916;-65
2021/10/07 12:53:14;;;;;;;;;;;18.30;64.50;;;;;;5066985;28;20298;-60
2021/10/07 12:55:40;;;;;;;;;;;18.30;64.60;;;;;;5065145;28;19920;-64
2021/10/07 12:58:06;;;;;;;;;;;18.30;64.60;;;;;;5047653;28;19931;-65
2021/10/07 13:00:32;;;;;;;;;;;18.30;64.60;;;;;;5038856;28;20371;-65
2021/10/07 13:02:58;;;;;;;;;;;18.30;64.60;;;;;;5065508;28;19913;-64
2021/10/07 13:05:27;;;;;;;;;;;18.30;64.70;;;;;;5065844;28;19966;-65
2021/10/07 13:07:53;;;;;;;;;;;18.30;64.60;;;;;;5065853;28;20214;-63
2021/10/07 13:10:19;;;;;;;;;;;18.30;64.60;;;;;;5065260;28;19916;-64
2021/10/07 13:12:44;;;;;;;;;;;18.30;64.60;;;;;;5066212;28;19920;-64
2021/10/07 13:15:10;;;;;;;;;;;18.30;64.60;;;;;;5063881;28;19913;-63
2021/10/07 13:17:35;;;;;;;;;;;18.30;64.80;;;;;;5064812;28;19928;-63
2021/10/07 13:20:00;;;;;;;;;;;18.30;64.80;;;;;;5064850;28;19916;-64
2021/10/07 13:22:26;;;;;;;;;;;18.30;64.80;;;;;;5065374;28;19917;-62
2021/10/07 13:24:51;;;;;;;;;;;18.30;65.10;;;;;;5062579;28;19916;-64
2021/10/07 13:27:23;;;;;;;;;;;18.30;64.90;;;;;;5065001;28;19931;-63
2021/10/07 13:29:48;;;;;;;;;;;18.30;64.90;;;;;;5064888;28;20026;-64
2021/10/07 13:32:16;;;;;;;;;;;18.30;64.90;;;;;;5064835;28;20390;-64
2021/10/07 13:34:41;;;;;;;;;;;18.30;64.90;;;;;;5064607;28;19916;-64
2021/10/07 13:37:06;;;;;;;;;;;18.30;64.90;;;;;;5064003;28;19923;-64
2021/10/07 13:39:32;;;;;;;;;;;18.30;65.00;;;;;;5044855;28;19923;-64
2021/10/07 13:41:57;;;;;;;;;;;18.30;64.90;;;;;;5016843;28;19917;-63
2021/10/07 13:44:23;;;;;;;;;;;18.30;65.00;;;;;;5053015;28;19920;-64
2021/10/07 13:46:48;;;;;;;;;;;18.30;65.00;;;;;;5063668;28;19970;-64
2021/10/07 13:49:14;;;;;;;;;;;18.30;65.10;;;;;;5046999;28;19922;-64
2021/10/07 13:51:39;;;;;;;;;;;18.30;65.10;;;;;;5064509;28;19913;-64
2021/10/07 13:54:05;;;;;;;;;;;18.30;65.10;;;;;;5064869;28;19927;-63
2021/10/07 13:56:30;;;;;;;;;;;18.30;65.20;;;;;;5064640;28;19939;-62
2021/10/07 13:58:56;;;;;;;;;;;18.30;65.20;;;;;;5046637;28;19912;-65
2021/10/07 14:01:21;;;;;;;;;;;18.30;65.20;;;;;;5046255;28;19920;-64
2021/10/07 14:03:47;;;;;;;;;;;18.30;65.10;;;;;;5064322;28;19919;-65
2021/10/07 14:06:12;;;;;;;;;;;18.30;65.20;;;;;;5064457;28;19989;-65
2021/10/07 14:08:38;;;;;;;;;;;18.30;65.20;;;;;;5063940;28;19913;-60
2021/10/07 14:11:07;;;;;;;;;;;18.30;65.30;;;;;;5046182;28;19912;-64
2021/10/07 14:13:33;;;;;;;;;;;18.30;65.30;;;;;;5064252;28;19920;-64
2021/10/07 14:15:58;;;;;;;;;;;18.30;65.40;;;;;;5064518;28;19913;-59
2021/10/07 14:18:23;;;;;;;;;;;18.30;65.30;;;;;;5064591;28;19961;-64